Time;durP1;ratioP1;P1;durP2;ratioP2;P2;SDS_P1;SDS_P2;PMS_P1;PMS_P2;Temp;Humidity;BMP_temperature;BMP_pressure;BME280_temperature;BME280_humidity;BME280_pressure;Samples;Min_cycle;Max_cycle;Signal;HPM_P1;HPM_P2
2023/09/21 00:01:10;;;;;;;9.40;2.92;;;17.60;99.90;;;;;;6187054;23;20062;-86
2023/09/21 00:03:40;;;;;;;8.65;3.10;;;17.50;99.90;;;;;;6188073;23;20111;-87
2023/09/21 00:06:12;;;;;;;10.05;2.97;;;17.50;99.90;;;;;;6188227;23;20075;-85
2023/09/21 00:08:48;;;;;;;9.00;3.00;;;17.50;99.90;;;;;;6186926;23;20452;-86
2023/09/21 00:11:14;;;;;;;9.65;3.10;;;17.50;99.90;;;;;;6188308;23;20016;-86
2023/09/21 00:13:40;;;;;;;8.18;2.90;;;17.50;99.90;;;;;;6213645;23;20091;-86
2023/09/21 00:16:18;;;;;;;9.48;2.85;;;17.40;99.90;;;;;;6188149;23;20044;-86
2023/09/21 00:19:02;;;;;;;10.07;3.10;;;17.40;99.90;;;;;;6187455;23;20016;-86
2023/09/21 00:21:31;;;;;;;10.95;2.85;;;17.30;99.90;;;;;;6187481;23;20016;-86
2023/09/21 00:26:51;;;;;;;7.68;2.78;;;17.20;99.90;;;;;;6128741;23;20033;-86
2023/09/21 00:29:17;;;;;;;9.98;3.00;;;17.20;99.90;;;;;;6127422;23;20022;-87
2023/09/21 00:31:48;;;;;;;11.48;3.17;;;17.20;99.90;;;;;;6130235;23;20105;-86
2023/09/21 00:34:26;;;;;;;9.20;3.00;;;17.20;99.90;;;;;;6106371;23;20396;-86
2023/09/21 00:36:58;;;;;;;9.07;3.35;;;17.20;99.90;;;;;;6130015;23;20022;-86
2023/09/21 00:39:26;;;;;;;10.68;3.30;;;17.20;99.90;;;;;;6130523;23;20056;-86
2023/09/21 00:41:55;;;;;;;8.52;2.92;;;17.10;99.90;;;;;;6129181;23;20051;-86
2023/09/21 00:44:33;;;;;;;10.00;3.05;;;17.10;99.90;;;;;;6130308;23;20350;-87
2023/09/21 00:47:05;;;;;;;8.27;3.20;;;17.10;99.90;;;;;;6130226;23;20017;-86
2023/09/21 00:49:36;;;;;;;8.60;2.72;;;17.00;99.90;;;;;;6129605;23;20067;-86
2023/09/21 00:52:02;;;;;;;8.80;2.72;;;17.10;99.90;;;;;;6176549;23;20021;-86
2023/09/21 00:54:55;;;;;;;8.77;3.00;;;17.00;99.90;;;;;;6189639;23;20324;-86
2023/09/21 00:57:34;;;;;;;8.60;2.80;;;17.00;99.90;;;;;;6187866;23;20047;-87
2023/09/21 01:00:00;;;;;;;9.18;2.70;;;16.90;99.90;;;;;;6190079;23;20372;-86
2023/09/21 01:02:26;;;;;;;8.48;2.83;;;16.90;99.90;;;;;;6189763;23;20023;-86
2023/09/21 01:04:59;;;;;;;9.40;2.90;;;16.90;99.90;;;;;;6188621;23;20016;-86
2023/09/21 01:07:36;;;;;;;7.68;2.65;;;16.90;99.90;;;;;;6189738;23;20020;-86
2023/09/21 01:10:19;;;;;;;8.57;2.72;;;16.90;99.90;;;;;;6188311;23;20016;-87
2023/09/21 01:12:51;;;;;;;8.27;2.80;;;16.80;99.90;;;;;;6188981;23;20016;-86
2023/09/21 01:15:26;;;;;;;8.85;2.85;;;16.80;99.90;;;;;;6189978;23;20108;-87
2023/09/21 01:18:09;;;;;;;9.32;3.00;;;16.80;99.90;;;;;;6188275;23;20012;-87
2023/09/21 01:21:06;;;;;;;9.57;2.80;;;16.80;99.90;;;;;;6188908;23;20361;-86
2023/09/21 01:23:57;;;;;;;9.20;3.00;;;16.70;99.90;;;;;;6187013;23;20017;-86
2023/09/21 01:26:29;;;;;;;13.73;3.10;;;16.70;99.90;;;;;;6189216;23;20092;-86
2023/09/21 01:28:59;;;;;;;8.93;3.08;;;16.70;99.90;;;;;;6188514;23;20016;-86
2023/09/21 01:31:31;;;;;;;8.93;3.10;;;16.60;99.90;;;;;;6188322;23;20020;-87
2023/09/21 01:34:05;;;;;;;8.68;2.88;;;16.60;99.90;;;;;;6189449;23;20023;-86
2023/09/21 01:36:34;;;;;;;9.10;2.78;;;16.70;99.90;;;;;;6189286;23;20019;-86
2023/09/21 01:39:00;;;;;;;8.20;2.83;;;16.60;99.90;;;;;;6188217;23;20016;-86
2023/09/21 01:41:35;;;;;;;7.43;2.88;;;16.60;99.90;;;;;;6188715;23;20012;-86
2023/09/21 01:44:07;;;;;;;9.90;3.00;;;16.60;99.90;;;;;;6189384;23;20341;-86
2023/09/21 01:46:39;;;;;;;9.35;3.08;;;16.60;99.90;;;;;;6188172;23;20095;-86
2023/09/21 01:49:05;;;;;;;9.93;2.80;;;16.60;99.90;;;;;;6188956;23;20015;-83
2023/09/21 01:51:43;;;;;;;8.95;2.70;;;16.70;99.90;;;;;;6187959;23;20028;-86
2023/09/21 01:54:14;;;;;;;8.45;2.75;;;16.70;99.90;;;;;;6206121;23;20021;-86
2023/09/21 01:56:49;;;;;;;8.48;2.80;;;16.60;99.90;;;;;;6213532;23;20830;-86
2023/09/21 01:59:15;;;;;;;8.63;3.00;;;16.70;99.90;;;;;;6220637;23;20013;-86
2023/09/21 02:01:44;;;;;;;8.05;2.78;;;16.60;99.90;;;;;;6218988;23;20388;-86
2023/09/21 02:04:25;;;;;;;8.02;2.90;;;16.60;99.90;;;;;;6218073;23;20099;-86
2023/09/21 02:06:57;;;;;;;8.30;2.70;;;16.60;99.90;;;;;;6216836;23;20468;-86
2023/09/21 02:09:35;;;;;;;7.50;2.70;;;16.50;99.90;;;;;;6219146;23;20016;-86
2023/09/21 02:12:13;;;;;;;8.48;3.00;;;16.60;99.90;;;;;;6219086;23;20479;-86
2023/09/21 02:14:39;;;;;;;9.02;3.00;;;17.10;99.90;;;;;;6217849;23;20016;-86
2023/09/21 02:17:11;;;;;;;8.02;3.08;;;17.50;99.90;;;;;;6246156;23;20016;-86
2023/09/21 02:19:41;;;;;;;8.43;2.70;;;16.70;99.90;;;;;;6218703;23;20067;-86
2023/09/21 02:22:11;;;;;;;8.05;2.60;;;16.70;99.90;;;;;;6217777;23;20016;-86
2023/09/21 02:24:40;;;;;;;7.78;2.63;;;17.40;99.90;;;;;;6245565;23;20075;-86
2023/09/21 02:27:05;;;;;;;8.85;2.80;;;16.70;99.90;;;;;;6218014;23;20016;-86
2023/09/21 02:29:40;;;;;;;9.27;2.58;;;16.80;99.90;;;;;;6190807;23;20016;-86
2023/09/21 02:32:07;;;;;;;7.28;2.55;;;16.90;99.90;;;;;;6189008;23;20021;-86
2023/09/21 02:34:44;;;;;;;8.60;2.78;;;16.90;99.90;;;;;;6187837;23;20017;-87
2023/09/21 02:37:10;;;;;;;7.82;2.65;;;16.90;99.90;;;;;;6189098;23;20092;-86
2023/09/21 02:39:36;;;;;;;7.57;2.30;;;16.90;99.90;;;;;;6203887;23;20388;-86
2023/09/21 02:42:11;;;;;;;7.22;2.58;;;17.30;99.90;;;;;;6187861;23;20016;-86
2023/09/21 02:44:37;;;;;;;7.90;2.67;;;16.90;99.90;;;;;;6188526;23;20012;-86
2023/09/21 02:47:02;;;;;;;7.72;2.72;;;16.90;99.90;;;;;;6188472;23;20028;-86
2023/09/21 02:49:31;;;;;;;9.88;3.05;;;16.90;99.90;;;;;;6187503;23;20020;-86
2023/09/21 02:52:15;;;;;;;13.50;3.00;;;17.50;99.90;;;;;;6214841;23;20040;-86
2023/09/21 02:54:41;;;;;;;8.10;2.75;;;16.80;99.90;;;;;;6187664;23;20016;-86
2023/09/21 02:57:33;;;;;;;7.75;2.72;;;16.80;99.90;;;;;;6158109;23;20025;-86
2023/09/21 03:00:07;;;;;;;8.38;2.63;;;16.80;99.90;;;;;;6158576;23;20338;-87
2023/09/21 03:02:45;;;;;;;8.73;2.83;;;16.70;99.90;;;;;;6134029;23;20021;-86
2023/09/21 03:05:13;;;;;;;9.48;2.60;;;16.80;99.90;;;;;;6157695;23;20025;-86
2023/09/21 03:07:55;;;;;;;8.15;2.47;;;16.80;99.90;;;;;;6157159;23;20021;-86
2023/09/21 03:10:23;;;;;;;7.72;2.63;;;16.80;99.90;;;;;;6157962;23;20059;-86
2023/09/21 03:13:05;;;;;;;9.95;2.60;;;16.70;99.90;;;;;;6158167;23;20009;-86
2023/09/21 03:15:33;;;;;;;7.78;2.60;;;16.70;99.90;;;;;;6158519;23;20078;-86
2023/09/21 03:17:58;;;;;;;7.22;2.53;;;16.70;99.90;;;;;;6157575;23;20049;-86
2023/09/21 03:20:40;;;;;;;8.73;2.67;;;17.30;99.90;;;;;;6158477;23;20353;-86
2023/09/21 03:23:11;;;;;;;8.00;2.53;;;16.60;99.90;;;;;;6158726;23;20019;-86
2023/09/21 03:25:57;;;;;;;8.82;2.85;;;16.90;99.90;;;;;;6157594;23;20017;-86
2023/09/21 03:28:24;;;;;;;7.68;2.78;;;16.60;99.90;;;;;;6157870;23;20353;-86
2023/09/21 03:30:51;;;;;;;7.55;2.88;;;16.50;99.90;;;;;;6157367;23;20021;-86
2023/09/21 03:33:34;;;;;;;8.80;2.92;;;16.50;99.90;;;;;;6158554;23;20037;-86
2023/09/21 03:36:01;;;;;;;8.18;2.65;;;16.50;99.90;;;;;;6158804;23;20025;-86
2023/09/21 03:38:36;;;;;;;7.63;2.75;;;16.40;99.90;;;;;;6157543;23;20096;-86
2023/09/21 03:41:01;;;;;;;7.78;2.53;;;16.40;99.90;;;;;;6158771;23;20024;-86
2023/09/21 03:43:45;;;;;;;7.13;2.60;;;16.40;99.90;;;;;;6158196;23;20409;-86
2023/09/21 03:46:26;;;;;;;8.52;2.90;;;16.40;99.90;;;;;;6157483;23;20025;-86
2023/09/21 03:48:51;;;;;;;9.70;2.83;;;16.40;99.90;;;;;;6158169;23;20446;-86
2023/09/21 03:51:17;;;;;;;7.93;2.83;;;16.40;99.90;;;;;;6158449;23;20104;-86
2023/09/21 03:53:42;;;;;;;8.00;2.70;;;16.40;99.90;;;;;;6157548;23;20049;-86
2023/09/21 03:56:17;;;;;;;7.50;2.90;;;17.40;99.90;;;;;;6179854;23;20017;-86
2023/09/21 03:58:43;;;;;;;8.10;2.63;;;16.50;99.90;;;;;;6157522;23;20078;-86
2023/09/21 04:01:09;;;;;;;6.80;2.63;;;16.60;99.90;;;;;;6183980;23;20103;-86
2023/09/21 04:03:35;;;;;;;7.00;2.47;;;16.70;99.90;;;;;;6157804;23;20023;-86
2023/09/21 04:06:19;;;;;;;8.63;2.60;;;16.60;99.90;;;;;;6158056;23;20541;-86
2023/09/21 04:08:44;;;;;;;8.13;2.60;;;16.90;99.90;;;;;;6160090;23;20013;-86
2023/09/21 04:11:10;;;;;;;7.63;2.80;;;16.70;99.90;;;;;;6160288;23;20453;-86
2023/09/21 04:16:16;;;;;;;6.70;2.40;;;16.70;99.90;;;;;;6216518;23;20024;-86
2023/09/21 04:18:42;;;;;;;8.52;2.70;;;16.70;99.90;;;;;;6189737;23;20021;-86
2023/09/21 04:21:23;;;;;;;7.82;2.75;;;16.70;99.90;;;;;;6189099;23;20333;-86
2023/09/21 04:23:55;;;;;;;9.10;2.42;;;16.70;99.90;;;;;;6189081;23;20017;-86
2023/09/21 04:26:21;;;;;;;8.50;2.67;;;16.60;99.90;;;;;;6189432;23;20095;-86
2023/09/21 04:28:56;;;;;;;6.82;2.40;;;16.70;99.90;;;;;;6188478;23;20051;-86
2023/09/21 04:31:38;;;;;;;8.05;2.60;;;16.70;99.90;;;;;;6190160;23;20017;-87
2023/09/21 04:34:04;;;;;;;7.55;2.55;;;16.70;99.90;;;;;;6188361;23;20096;-86
2023/09/21 04:36:30;;;;;;;7.65;2.33;;;16.70;99.90;;;;;;6216697;23;20050;-86
2023/09/21 04:39:14;;;;;;;7.00;2.38;;;16.70;99.90;;;;;;6188491;23;20016;-86
2023/09/21 04:41:40;;;;;;;7.88;2.60;;;16.50;99.90;;;;;;6189120;23;20016;-86
2023/09/21 04:44:08;;;;;;;8.02;2.72;;;16.50;99.90;;;;;;6190759;23;20009;-86
2023/09/21 04:46:42;;;;;;;8.52;2.60;;;16.60;99.90;;;;;;6189672;23;20095;-86
2023/09/21 04:49:08;;;;;;;6.43;2.40;;;16.40;99.90;;;;;;6189877;23;20017;-86
2023/09/21 04:51:34;;;;;;;9.07;2.83;;;16.50;99.90;;;;;;6190189;23;20463;-87
2023/09/21 04:54:21;;;;;;;10.00;2.80;;;16.30;99.90;;;;;;6202869;23;20039;-86
2023/09/21 04:56:51;;;;;;;7.72;2.67;;;17.00;99.90;;;;;;6207538;23;20070;-86
2023/09/21 04:59:20;;;;;;;7.70;2.67;;;16.10;99.90;;;;;;6189708;23;20476;-86
2023/09/21 05:02:01;;;;;;;7.85;2.92;;;16.10;99.90;;;;;;6217242;23;20387;-86
2023/09/21 05:04:45;;;;;;;9.40;3.00;;;16.10;99.90;;;;;;6191758;23;20513;-86
2023/09/21 05:07:13;;;;;;;9.00;3.00;;;16.00;99.90;;;;;;6216549;23;20021;-86
2023/09/21 05:09:57;;;;;;;9.50;2.70;;;16.00;99.90;;;;;;6188663;23;20445;-86
2023/09/21 05:12:23;;;;;;;7.53;2.67;;;16.00;99.90;;;;;;6190391;23;20104;-86
2023/09/21 05:14:52;;;;;;;8.55;2.80;;;16.00;99.90;;;;;;6189001;23;20055;-86
2023/09/21 05:17:18;;;;;;;7.68;2.78;;;16.60;99.90;;;;;;6190299;23;20024;-86
2023/09/21 05:19:46;;;;;;;7.95;2.83;;;16.00;99.90;;;;;;6189314;23;20017;-86
2023/09/21 05:22:30;;;;;;;7.22;2.70;;;16.00;99.90;;;;;;6189685;23;20016;-86
2023/09/21 05:24:56;;;;;;;9.02;2.70;;;16.00;99.90;;;;;;6184641;23;20456;-83
2023/09/21 05:27:36;;;;;;;7.25;2.60;;;16.00;99.90;;;;;;6188248;23;20025;-84
2023/09/21 05:30:05;;;;;;;8.68;2.60;;;16.00;99.90;;;;;;6186138;23;20311;-80
2023/09/21 05:32:34;;;;;;;8.75;2.53;;;16.10;99.90;;;;;;6189306;23;20016;-80
2023/09/21 05:35:00;;;;;;;8.50;2.50;;;16.10;99.90;;;;;;6189186;23;20457;-82
2023/09/21 05:37:25;;;;;;;8.10;2.58;;;16.10;99.90;;;;;;6188535;23;20023;-82
2023/09/21 05:39:54;;;;;;;7.80;2.50;;;16.10;99.90;;;;;;6188011;23;20025;-82
2023/09/21 05:42:19;;;;;;;7.13;2.60;;;16.20;99.90;;;;;;6188883;23;20468;-82
2023/09/21 05:44:45;;;;;;;7.32;2.40;;;16.20;99.90;;;;;;6214495;23;20017;-82
2023/09/21 05:47:11;;;;;;;7.60;2.78;;;16.30;99.90;;;;;;6188046;23;20031;-82
2023/09/21 05:49:37;;;;;;;6.97;2.50;;;16.30;99.90;;;;;;6215588;23;20103;-82
2023/09/21 05:52:08;;;;;;;7.65;2.50;;;16.40;99.90;;;;;;6188347;23;20040;-82
2023/09/21 05:54:35;;;;;;;9.63;2.72;;;16.50;99.90;;;;;;6215312;23;20019;-82
2023/09/21 05:57:03;;;;;;;7.97;2.38;;;16.70;99.90;;;;;;6215864;23;20024;-82
2023/09/21 05:59:31;;;;;;;7.93;2.75;;;16.50;99.90;;;;;;6212377;23;20096;-82
2023/09/21 06:02:05;;;;;;;7.35;2.50;;;16.60;99.90;;;;;;6188735;23;20480;-82
2023/09/21 06:04:30;;;;;;;;;;;16.70;99.90;;;;;;6189301;23;20016;-82
2023/09/21 06:06:58;;;;;;;9.85;2.50;;;16.90;99.90;;;;;;6214263;23;19916;-82
2023/09/21 06:09:24;;;;;;;7.18;2.50;;;17.00;99.90;;;;;;6215527;23;20013;-82
2023/09/21 06:11:50;;;;;;;8.13;2.47;;;17.20;99.90;;;;;;6189050;23;20035;-82
2023/09/21 06:14:17;;;;;;;7.75;2.60;;;17.30;99.90;;;;;;6187920;23;20013;-83
2023/09/21 06:16:46;;;;;;;6.95;2.38;;;17.40;99.90;;;;;;6187949;23;20016;-85
2023/09/21 06:19:15;;;;;;;8.77;3.05;;;17.50;99.90;;;;;;6184847;23;20453;-81
2023/09/21 06:21:47;;;;;;;9.63;2.85;;;17.60;99.90;;;;;;6188558;23;20020;-83
2023/09/21 06:24:13;;;;;;;7.47;2.40;;;17.80;99.90;;;;;;6188715;23;20441;-81
2023/09/21 06:26:38;;;;;;;7.43;2.38;;;17.70;99.90;;;;;;6187107;23;20023;-80
2023/09/21 06:29:04;;;;;;;9.68;2.47;;;17.80;99.90;;;;;;6188651;23;20067;-81
2023/09/21 06:31:30;;;;;;;7.63;2.45;;;17.80;99.90;;;;;;6188175;23;20020;-80
2023/09/21 06:33:59;;;;;;;7.82;2.70;;;17.80;99.90;;;;;;6187260;23;20017;-81
2023/09/21 06:36:29;;;;;;;8.57;2.67;;;17.90;99.90;;;;;;6188605;23;20083;-82
2023/09/21 06:38:58;;;;;;;6.47;2.40;;;18.00;99.90;;;;;;6215261;23;20028;-83
2023/09/21 06:41:25;;;;;;;7.45;2.65;;;18.10;99.90;;;;;;6186823;23;20027;-81
2023/09/21 06:43:51;;;;;;;6.50;2.38;;;18.30;99.90;;;;;;6214102;23;20028;-81
2023/09/21 06:46:17;;;;;;;8.30;2.35;;;18.80;99.90;;;;;;6212227;23;20020;-81
2023/09/21 06:48:43;;;;;;;7.20;2.30;;;18.50;99.90;;;;;;6187399;23;20460;-82
2023/09/21 06:51:09;;;;;;;7.32;2.42;;;18.50;99.90;;;;;;6188506;23;20345;-81
2023/09/21 06:53:37;;;;;;;8.63;2.47;;;18.50;99.90;;;;;;6186827;23;20088;-79
2023/09/21 06:56:04;;;;;;;8.73;2.70;;;18.60;99.90;;;;;;6187691;23;20386;-80
2023/09/21 06:58:30;;;;;;;8.10;2.92;;;18.50;99.90;;;;;;6188553;23;20020;-79
2023/09/21 07:00:59;;;;;;;7.63;2.75;;;18.60;99.90;;;;;;6188307;23;20095;-79
2023/09/21 07:03:26;;;;;;;8.68;2.58;;;18.60;99.90;;;;;;6187597;23;20016;-79
2023/09/21 07:05:52;;;;;;;9.77;2.65;;;18.60;99.90;;;;;;6186802;23;20024;-79
2023/09/21 07:08:19;;;;;;;7.20;2.30;;;18.60;99.90;;;;;;6187256;23;20341;-79
2023/09/21 07:10:44;;;;;;;7.95;2.50;;;18.60;99.90;;;;;;6187830;23;20357;-80
2023/09/21 07:13:10;;;;;;;8.18;2.60;;;18.60;99.90;;;;;;6187837;23;20020;-79
2023/09/21 07:15:40;;;;;;;7.82;2.55;;;18.60;99.90;;;;;;6187064;23;20729;-80
2023/09/21 07:18:06;;;;;;;7.85;2.60;;;18.60;99.90;;;;;;6188522;23;20020;-79
2023/09/21 07:20:33;;;;;;;7.32;2.45;;;18.60;99.90;;;;;;6187276;23;20437;-79
2023/09/21 07:22:59;;;;;;;8.18;2.95;;;18.70;99.90;;;;;;6187335;23;20021;-79
2023/09/21 07:25:25;;;;;;;9.32;2.78;;;18.70;99.90;;;;;;6187154;23;20027;-79
2023/09/21 07:27:54;;;;;;;8.40;2.50;;;18.80;99.90;;;;;;6187610;23;20078;-79
2023/09/21 07:30:20;;;;;;;8.07;2.70;;;18.80;99.90;;;;;;6185963;23;20438;-79
2023/09/21 07:32:46;;;;;;;8.02;2.97;;;18.90;99.90;;;;;;6186144;23;20017;-79
2023/09/21 07:35:14;;;;;;;8.25;2.45;;;18.90;99.90;;;;;;6187429;23;20023;-79
2023/09/21 07:37:46;;;;;;;9.57;2.72;;;18.90;99.90;;;;;;6186150;23;20465;-79
2023/09/21 07:40:15;;;;;;;6.90;2.38;;;18.90;99.90;;;;;;6189980;23;20017;-79
2023/09/21 07:42:42;;;;;;;8.82;2.60;;;19.00;99.90;;;;;;6189838;23;20032;-79
2023/09/21 07:45:12;;;;;;;7.93;2.70;;;19.00;99.90;;;;;;6189834;23;20017;-79
2023/09/21 07:47:38;;;;;;;7.57;2.40;;;19.10;99.90;;;;;;6189865;23;20519;-79
2023/09/21 07:50:05;;;;;;;7.68;2.53;;;19.10;99.90;;;;;;6189891;23;20016;-79
2023/09/21 07:52:32;;;;;;;7.15;2.50;;;19.10;99.90;;;;;;6189072;23;20327;-79
2023/09/21 07:55:02;;;;;;;9.95;2.72;;;19.40;99.90;;;;;;6189867;23;20040;-80
2023/09/21 07:57:37;;;;;;;6.80;2.50;;;19.30;99.90;;;;;;6189942;23;20020;-79
2023/09/21 08:00:05;;;;;;;9.82;2.67;;;19.30;99.90;;;;;;6190296;23;20027;-79
2023/09/21 08:02:31;;;;;;;8.07;2.80;;;19.40;99.90;;;;;;6190012;23;20017;-79
2023/09/21 08:04:57;;;;;;;9.23;2.70;;;19.50;99.90;;;;;;6188307;23;20294;-79
2023/09/21 08:07:26;;;;;;;11.15;3.05;;;19.60;99.90;;;;;;6190127;23;20028;-79
2023/09/21 08:09:54;;;;;;;7.07;2.47;;;19.70;99.90;;;;;;6189283;23;20039;-79
2023/09/21 08:12:24;;;;;;;8.80;2.75;;;19.80;99.90;;;;;;6215982;23;20023;-79
2023/09/21 08:14:50;;;;;;;7.82;2.80;;;19.90;99.90;;;;;;6215980;23;20058;-79
2023/09/21 08:17:16;;;;;;;7.05;2.50;;;19.90;99.90;;;;;;6189872;23;20095;-79
2023/09/21 08:19:42;;;;;;;9.52;2.92;;;19.90;99.90;;;;;;6188492;23;20047;-79
2023/09/21 08:22:07;;;;;;;9.13;2.90;;;19.90;99.90;;;;;;6189691;23;20021;-79
2023/09/21 08:24:36;;;;;;;10.52;2.88;;;19.90;99.90;;;;;;6189671;23;20390;-79
2023/09/21 08:27:03;;;;;;;7.70;2.60;;;19.90;99.90;;;;;;6188754;23;20059;-80
2023/09/21 08:29:29;;;;;;;13.75;3.08;;;19.90;99.90;;;;;;6189401;23;20314;-79
2023/09/21 08:31:55;;;;;;;7.95;2.53;;;19.80;99.90;;;;;;6189034;23;20027;-79
2023/09/21 08:34:20;;;;;;;8.73;2.75;;;19.90;99.90;;;;;;6188793;23;20083;-79
2023/09/21 08:36:49;;;;;;;10.15;2.90;;;19.90;99.90;;;;;;6188633;23;20405;-80
2023/09/21 08:39:17;;;;;;;10.70;2.90;;;19.90;99.90;;;;;;6189466;23;20052;-80
2023/09/21 08:41:50;;;;;;;8.57;2.88;;;19.90;99.90;;;;;;6188285;23;20019;-79
2023/09/21 08:44:19;;;;;;;9.85;2.85;;;19.90;99.90;;;;;;6189580;23;20020;-80
2023/09/21 08:46:46;;;;;;;13.85;3.10;;;19.90;99.90;;;;;;6188112;23;20027;-80
2023/09/21 08:49:13;;;;;;;8.90;2.88;;;19.90;99.90;;;;;;6189798;23;20009;-79
2023/09/21 08:51:42;;;;;;;8.93;3.00;;;20.00;99.90;;;;;;6187554;23;20519;-79
2023/09/21 08:54:08;;;;;;;8.63;2.90;;;19.90;99.90;;;;;;6188772;23;20017;-80
2023/09/21 08:56:36;;;;;;;8.02;2.92;;;19.90;99.90;;;;;;6187608;23;20044;-79
2023/09/21 08:59:06;;;;;;;8.48;2.75;;;19.90;99.90;;;;;;6188814;23;20112;-79
2023/09/21 09:01:32;;;;;;;7.85;2.70;;;19.80;99.90;;;;;;6188847;23;20021;-79
2023/09/21 09:03:58;;;;;;;7.88;2.70;;;19.80;99.90;;;;;;6216019;23;20086;-82
2023/09/21 09:06:27;;;;;;;7.60;2.63;;;19.70;99.90;;;;;;6189168;23;20021;-82
2023/09/21 09:08:54;;;;;;;9.07;3.15;;;19.60;99.90;;;;;;6188429;23;20019;-81
2023/09/21 09:11:40;;;;;;;10.75;3.00;;;19.50;99.90;;;;;;6189349;23;20020;-81
2023/09/21 09:14:14;;;;;;;8.70;2.75;;;19.40;99.90;;;;;;6189450;23;20311;-81
2023/09/21 09:16:39;;;;;;;9.55;3.00;;;19.30;99.90;;;;;;6187867;23;20074;-81
2023/09/21 09:19:05;;;;;;;9.52;2.70;;;19.40;99.90;;;;;;6189499;23;20020;-81
2023/09/21 09:21:31;;;;;;;7.85;3.00;;;19.30;99.90;;;;;;6189522;23;20044;-81
2023/09/21 09:23:58;;;;;;;8.30;3.00;;;19.30;99.90;;;;;;6214956;23;20485;-81
2023/09/21 09:26:23;;;;;;;9.35;2.92;;;19.40;99.90;;;;;;6188690;23;20096;-81
2023/09/21 09:28:49;;;;;;;8.00;3.00;;;19.20;99.90;;;;;;6188594;23;20047;-81
2023/09/21 09:31:18;;;;;;;8.48;2.90;;;19.10;99.90;;;;;;6188466;23;20111;-81
2023/09/21 09:33:49;;;;;;;9.20;3.17;;;18.90;99.90;;;;;;6188836;23;20040;-81
2023/09/21 09:36:15;;;;;;;7.85;2.80;;;18.90;99.90;;;;;;6188082;23;20020;-81
2023/09/21 09:38:41;;;;;;;7.47;2.60;;;19.00;99.90;;;;;;6215289;23;20342;-81
2023/09/21 09:41:14;;;;;;;8.13;3.10;;;18.90;99.90;;;;;;6189077;23;20042;-81
2023/09/21 09:43:41;;;;;;;9.52;3.10;;;18.80;99.90;;;;;;6186385;23;20449;-81
2023/09/21 09:46:11;;;;;;;7.43;2.83;;;18.80;99.90;;;;;;6188940;23;20023;-82
2023/09/21 09:48:39;;;;;;;9.07;3.20;;;18.70;99.90;;;;;;6188573;23;20035;-81
2023/09/21 09:51:11;;;;;;;8.18;3.38;;;18.70;99.90;;;;;;6188213;23;20037;-81
2023/09/21 09:53:38;;;;;;;8.85;2.95;;;18.60;99.90;;;;;;6188002;23;20028;-81
2023/09/21 09:56:11;;;;;;;9.00;3.17;;;18.60;99.90;;;;;;6189022;23;20027;-81
2023/09/21 09:58:41;;;;;;;9.57;3.30;;;18.50;99.90;;;;;;6186829;23;20314;-81
2023/09/21 10:01:12;;;;;;;8.88;3.40;;;18.50;99.90;;;;;;6188829;23;20021;-81
2023/09/21 10:03:38;;;;;;;8.27;3.22;;;18.50;99.90;;;;;;6187810;23;20021;-82
2023/09/21 10:06:09;;;;;;;9.48;3.30;;;18.50;99.90;;;;;;6187769;23;20017;-83
2023/09/21 10:08:39;;;;;;;8.77;3.00;;;18.50;99.90;;;;;;6188056;23;20012;-82
2023/09/21 10:11:10;;;;;;;9.25;3.05;;;18.50;99.90;;;;;;6188860;23;20048;-82
2023/09/21 10:13:47;;;;;;;8.98;3.03;;;18.50;99.90;;;;;;6187921;23;20017;-82
2023/09/21 10:16:13;;;;;;;10.88;3.75;;;18.50;99.90;;;;;;6187635;23;20443;-82
2023/09/21 10:18:40;;;;;;;10.35;3.55;;;18.50;99.90;;;;;;6212484;23;20106;-82
2023/09/21 10:21:30;;;;;;;9.52;3.20;;;18.40;99.90;;;;;;6187939;23;20020;-83
2023/09/21 10:24:16;;;;;;;10.27;3.25;;;18.40;99.90;;;;;;6186057;23;20021;-82
2023/09/21 10:26:45;;;;;;;8.88;3.55;;;18.30;99.90;;;;;;6185278;23;20027;-83
2023/09/21 10:29:12;;;;;;;8.38;3.42;;;18.40;99.90;;;;;;6187604;23;20008;-83
2023/09/21 10:31:56;;;;;;;8.52;3.50;;;18.50;99.90;;;;;;6188195;23;20453;-84
2023/09/21 10:34:24;;;;;;;8.73;3.42;;;18.40;99.90;;;;;;6187666;23;20013;-83
2023/09/21 10:37:10;;;;;;;9.73;4.00;;;18.40;99.90;;;;;;6188450;23;20056;-84
2023/09/21 10:39:39;;;;;;;11.55;3.75;;;18.40;99.90;;;;;;6186876;23;20711;-84
2023/09/21 10:42:05;;;;;;;9.23;3.83;;;18.40;99.90;;;;;;6188808;23;20155;-84
2023/09/21 10:44:52;;;;;;;12.07;4.15;;;18.30;99.90;;;;;;6188599;23;20055;-84
2023/09/21 10:47:44;;;;;;;9.80;3.80;;;18.30;99.90;;;;;;6187484;23;20017;-84
2023/09/21 10:50:16;;;;;;;9.48;4.10;;;18.30;99.90;;;;;;6174866;23;20020;-82
2023/09/21 10:52:47;;;;;;;9.85;4.20;;;18.30;99.90;;;;;;6189061;23;20016;-83
2023/09/21 10:55:16;;;;;;;10.13;3.97;;;18.40;99.90;;;;;;6192145;23;20381;-83
2023/09/21 10:57:43;;;;;;;10.52;4.00;;;18.40;99.90;;;;;;6189595;23;20021;-82
2023/09/21 11:00:21;;;;;;;11.02;4.03;;;18.90;99.90;;;;;;6188431;23;20012;-84
2023/09/21 11:02:49;;;;;;;9.27;3.70;;;18.50;99.90;;;;;;6188769;23;20028;-82
2023/09/21 11:05:19;;;;;;;9.75;3.90;;;18.60;99.90;;;;;;6188783;23;20020;-84
2023/09/21 11:07:51;;;;;;;9.57;4.10;;;18.70;99.90;;;;;;6187160;23;20016;-82
2023/09/21 11:10:16;;;;;;;9.45;3.85;;;18.70;99.90;;;;;;6188431;23;20091;-81
2023/09/21 11:12:42;;;;;;;9.45;4.00;;;18.80;99.90;;;;;;6188176;23;20063;-82
2023/09/21 11:15:13;;;;;;;8.73;3.70;;;18.90;99.90;;;;;;6187070;23;20012;-82
2023/09/21 11:17:44;;;;;;;10.93;3.90;;;19.00;99.90;;;;;;6187877;23;20067;-83
2023/09/21 11:20:20;;;;;;;11.15;4.30;;;19.00;99.90;;;;;;6188387;23;20012;-82
2023/09/21 11:22:48;;;;;;;10.02;3.97;;;19.00;99.90;;;;;;6186848;23;20108;-82
2023/09/21 11:25:17;;;;;;;10.00;4.15;;;19.00;99.90;;;;;;6214634;23;20096;-82
2023/09/21 11:27:43;;;;;;;9.25;3.78;;;19.00;99.90;;;;;;6188308;23;20495;-82
2023/09/21 11:30:13;;;;;;;10.35;3.88;;;19.00;99.90;;;;;;6187327;23;20091;-82
2023/09/21 11:32:46;;;;;;;10.45;3.95;;;19.10;99.90;;;;;;6187567;23;20013;-84
2023/09/21 11:35:14;;;;;;;9.48;4.18;;;19.10;99.90;;;;;;6188221;23;20024;-83
2023/09/21 11:37:41;;;;;;;8.18;3.58;;;19.10;99.90;;;;;;6184709;23;20024;-83
2023/09/21 11:40:12;;;;;;;10.50;4.07;;;19.40;99.90;;;;;;6184853;23;20016;-82
2023/09/21 11:42:45;;;;;;;11.32;4.15;;;19.10;99.90;;;;;;6186396;23;20039;-82
2023/09/21 11:45:18;;;;;;;;;;;19.10;99.90;;;;;;6188326;23;20095;-82
2023/09/21 11:48:03;;;;;;;9.82;4.03;;;19.00;99.90;;;;;;6187436;23;19916;-82
2023/09/21 11:50:32;;;;;;;11.32;4.78;;;18.90;99.90;;;;;;6186911;23;20016;-82
2023/09/21 11:52:58;;;;;;;10.98;5.05;;;18.80;99.90;;;;;;6187657;23;20020;-82
2023/09/21 11:55:25;;;;;;;9.85;4.90;;;18.70;99.90;;;;;;6187744;23;20009;-83
2023/09/21 11:57:51;;;;;;;10.55;5.30;;;18.60;99.90;;;;;;6186293;23;20048;-82
2023/09/21 12:00:27;;;;;;;12.35;5.18;;;18.50;99.90;;;;;;6214744;23;20444;-82
2023/09/21 12:03:01;;;;;;;10.82;5.03;;;18.60;99.90;;;;;;6187488;23;20346;-82
2023/09/21 12:05:26;;;;;;;10.23;5.07;;;18.60;99.90;;;;;;6186799;23;20087;-82
2023/09/21 12:07:53;;;;;;;9.98;5.00;;;18.60;99.90;;;;;;6187851;23;20126;-82
2023/09/21 12:10:18;;;;;;;10.40;5.00;;;18.60;99.90;;;;;;6187795;23;20008;-82
2023/09/21 12:12:46;;;;;;;10.25;4.80;;;18.90;99.90;;;;;;6186411;23;20095;-82
2023/09/21 12:15:12;;;;;;;8.90;4.18;;;18.90;99.90;;;;;;6187781;23;20016;-82
2023/09/21 12:17:38;;;;;;;9.68;4.60;;;19.10;99.90;;;;;;6187357;23;20023;-82
2023/09/21 12:20:11;;;;;;;10.77;4.38;;;19.10;99.90;;;;;;6186902;23;20021;-83
2023/09/21 12:22:38;;;;;;;8.93;4.22;;;19.20;99.90;;;;;;6187353;23;20454;-82
2023/09/21 12:25:08;;;;;;;11.52;4.40;;;19.30;99.90;;;;;;6185896;23;20017;-82
2023/09/21 12:27:38;;;;;;;9.98;4.57;;;19.40;99.90;;;;;;6187874;23;20024;-82
2023/09/21 12:30:10;;;;;;;8.85;4.00;;;19.50;99.90;;;;;;6188378;23;20019;-83
2023/09/21 12:32:41;;;;;;;9.52;4.43;;;19.80;99.90;;;;;;6186608;23;20027;-82
2023/09/21 12:35:11;;;;;;;8.45;3.90;;;19.90;99.90;;;;;;6189374;23;20020;-82
2023/09/21 12:37:39;;;;;;;12.00;4.60;;;20.20;99.90;;;;;;6187974;23;20020;-82
2023/09/21 12:40:12;;;;;;;9.60;4.30;;;20.40;99.90;;;;;;6188633;23;20468;-83
2023/09/21 12:42:42;;;;;;;9.90;4.40;;;20.30;99.90;;;;;;6189468;23;20020;-82
2023/09/21 12:45:11;;;;;;;7.55;3.25;;;20.20;99.90;;;;;;6189538;23;20017;-84
2023/09/21 12:47:39;;;;;;;7.22;2.95;;;19.80;99.90;;;;;;6188211;23;20023;-83
2023/09/21 12:50:06;;;;;;;8.05;3.28;;;19.50;99.90;;;;;;6189466;23;20013;-83
2023/09/21 12:52:33;;;;;;;9.52;3.28;;;19.40;99.90;;;;;;6189952;23;20348;-82
2023/09/21 12:55:00;;;;;;;8.23;3.58;;;19.40;99.90;;;;;;6188349;23;20063;-83
2023/09/21 12:57:27;;;;;;;8.32;3.13;;;19.20;99.90;;;;;;6189281;23;20021;-82
2023/09/21 12:59:54;;;;;;;7.25;2.83;;;19.00;99.90;;;;;;6188790;23;20008;-82
2023/09/21 13:02:25;;;;;;;7.70;2.60;;;18.70;99.90;;;;;;6187999;23;20020;-81
2023/09/21 13:05:08;;;;;;;6.97;2.40;;;18.40;99.90;;;;;;6188949;23;20012;-84
2023/09/21 13:07:47;;;;;;;6.15;2.05;;;18.20;99.90;;;;;;6188147;23;20017;-83